Time;durP1;ratioP1;P1;durP2;ratioP2;P2;SDS_P1;SDS_P2;PMS_P1;PMS_P2;Temp;Humidity;BMP_temperature;BMP_pressure;BME280_temperature;BME280_humidity;BME280_pressure;Samples;Min_cycle;Max_cycle;Signal;HPM_P1;HPM_P2
2022/12/21 00:01:23;;;;;;;86.28;21.55;;;8.50;99.90;;;;;;4990694;28;20054;-87
2022/12/21 00:03:59;;;;;;;70.60;21.02;;;8.40;99.90;;;;;;4990279;28;20588;-87
2022/12/21 00:06:26;;;;;;;78.55;21.17;;;8.40;99.90;;;;;;4973540;28;20058;-86
2022/12/21 00:08:52;;;;;;;77.15;21.23;;;8.30;99.90;;;;;;4941428;28;20094;-86
2022/12/21 00:11:18;;;;;;;74.18;21.60;;;8.30;99.90;;;;;;4972807;28;20205;-86
2022/12/21 00:13:44;;;;;;;77.07;21.60;;;8.20;99.90;;;;;;4973120;28;20576;-86
2022/12/21 00:16:12;;;;;;;90.90;21.40;;;8.20;99.90;;;;;;4973176;28;20173;-87
2022/12/21 00:18:38;;;;;;;77.82;21.25;;;8.10;99.90;;;;;;4957514;28;20129;-86
2022/12/21 00:21:11;;;;;;;75.60;20.77;;;8.10;99.90;;;;;;4973065;28;20134;-87
2022/12/21 00:23:37;;;;;;;74.22;21.33;;;8.00;99.90;;;;;;4958411;28;20073;-87
2022/12/21 00:26:03;;;;;;;88.90;22.45;;;8.00;99.90;;;;;;4925655;28;20050;-86
2022/12/21 00:28:29;;;;;;;86.53;21.10;;;8.00;99.90;;;;;;4957108;28;20057;-86
2022/12/21 00:30:55;;;;;;;87.47;20.80;;;8.00;99.90;;;;;;4957704;28;20062;-87
2022/12/21 00:33:21;;;;;;;80.50;21.50;;;8.00;99.90;;;;;;5003489;28;20064;-86
2022/12/21 00:35:50;;;;;;;89.13;22.58;;;7.90;99.90;;;;;;4985081;28;20126;-87
2022/12/21 00:38:16;;;;;;;86.28;22.40;;;8.00;99.90;;;;;;4961153;28;20412;-86
2022/12/21 00:40:42;;;;;;;102.57;21.08;;;8.00;99.90;;;;;;4992549;28;20045;-87
2022/12/21 00:43:08;;;;;;;107.43;22.70;;;8.00;99.90;;;;;;5009399;28;20046;-86
2022/12/21 00:45:33;;;;;;;109.70;22.35;;;7.90;99.90;;;;;;4975911;28;20053;-87
2022/12/21 00:47:59;;;;;;;107.38;22.27;;;7.90;99.90;;;;;;5009506;28;20046;-86
2022/12/21 00:50:25;;;;;;;121.65;24.77;;;7.90;99.90;;;;;;4991613;28;20076;-87
2022/12/21 00:52:50;;;;;;;120.28;23.38;;;7.90;99.90;;;;;;5010463;28;20153;-87
2022/12/21 00:55:16;;;;;;;98.25;22.52;;;7.90;99.90;;;;;;5013265;28;20447;-86
2022/12/21 00:57:41;;;;;;;121.15;23.08;;;8.00;99.90;;;;;;4995888;28;20735;-86
2022/12/21 01:00:09;;;;;;;99.90;22.63;;;7.90;99.90;;;;;;5013088;28;20081;-87
2022/12/21 01:02:35;;;;;;;110.63;23.73;;;8.00;99.90;;;;;;4963800;28;20050;-87
2022/12/21 01:05:01;;;;;;;124.38;23.75;;;7.90;99.90;;;;;;5013354;28;20045;-86
2022/12/21 01:07:27;;;;;;;130.10;24.38;;;7.90;99.90;;;;;;4995687;28;20049;-86
2022/12/21 01:09:53;;;;;;;112.75;23.13;;;7.90;99.90;;;;;;4995217;28;20046;-86
2022/12/21 01:12:18;;;;;;;110.32;25.25;;;7.90;99.90;;;;;;4994769;28;20599;-86
2022/12/21 01:14:44;;;;;;;106.75;23.42;;;7.90;99.90;;;;;;4979257;28;20507;-86
2022/12/21 01:17:10;;;;;;;136.68;24.73;;;8.00;99.90;;;;;;4995410;28;20409;-87
2022/12/21 01:19:35;;;;;;;130.50;25.27;;;7.90;99.90;;;;;;4994990;28;20559;-87
2022/12/21 01:22:01;;;;;;;135.07;25.08;;;7.90;99.90;;;;;;5013830;28;20049;-87
2022/12/21 01:24:26;;;;;;;115.93;23.85;;;7.90;99.90;;;;;;5015609;28;20050;-87
2022/12/21 01:26:52;;;;;;;121.38;23.25;;;7.90;99.90;;;;;;5012463;28;20512;-86
2022/12/21 01:29:18;;;;;;;127.93;24.17;;;7.90;99.90;;;;;;5012925;28;20546;-86
2022/12/21 01:31:43;;;;;;;117.28;23.38;;;7.90;99.90;;;;;;5012416;28;20488;-86
2022/12/21 01:34:09;;;;;;;98.95;21.63;;;7.90;99.90;;;;;;5012348;28;20053;-86
2022/12/21 01:36:35;;;;;;;109.75;22.55;;;7.90;99.90;;;;;;4995069;28;20140;-86
2022/12/21 01:39:00;;;;;;;100.30;21.08;;;7.90;99.90;;;;;;5012951;28;20049;-87
2022/12/21 01:41:26;;;;;;;91.28;20.05;;;7.80;99.90;;;;;;5012447;28;20046;-87
2022/12/21 01:44:00;;;;;;;114.15;20.83;;;7.80;99.90;;;;;;4995392;28;20053;-86
2022/12/21 01:46:30;;;;;;;98.67;18.83;;;7.80;99.90;;;;;;4994979;28;20049;-87
2022/12/21 01:49:11;;;;;;;106.10;21.42;;;7.80;99.90;;;;;;4994529;28;20533;-86
2022/12/21 01:51:36;;;;;;;87.72;18.75;;;7.80;99.90;;;;;;4996250;28;20049;-87
2022/12/21 01:54:13;;;;;;;89.63;19.50;;;7.80;99.90;;;;;;5012253;28;20073;-86
2022/12/21 01:56:38;;;;;;;104.25;19.95;;;7.70;99.90;;;;;;4994877;28;20053;-86
2022/12/21 01:59:10;;;;;;;102.68;21.30;;;7.70;99.90;;;;;;4978942;28;20049;-87
2022/12/21 02:01:36;;;;;;;111.50;19.70;;;7.80;99.90;;;;;;4963280;28;20132;-86
2022/12/21 02:04:01;;;;;;;90.63;19.40;;;7.80;99.90;;;;;;4994507;28;20529;-86
2022/12/21 02:06:45;;;;;;;104.40;20.73;;;7.80;99.90;;;;;;5011972;28;20088;-86
2022/12/21 02:09:11;;;;;;;99.05;21.00;;;7.80;99.90;;;;;;4979047;28;20050;-86
2022/12/21 02:11:36;;;;;;;126.22;21.20;;;7.80;99.90;;;;;;4993726;28;20050;-86
2022/12/21 02:14:02;;;;;;;118.10;19.48;;;7.70;99.90;;;;;;4978408;28;20054;-86
2022/12/21 02:16:35;;;;;;;113.15;17.67;;;7.70;99.90;;;;;;5012328;28;20076;-87
2022/12/21 02:19:04;;;;;;;147.13;17.77;;;7.70;99.90;;;;;;4994394;28;20678;-86
2022/12/21 02:21:40;;;;;;;160.63;18.63;;;7.60;99.90;;;;;;5010829;28;20061;-86
2022/12/21 02:24:44;;;;;;;155.88;17.95;;;7.60;99.90;;;;;;4994421;28;20049;-86
2022/12/21 02:27:35;;;;;;;142.07;19.58;;;7.60;99.90;;;;;;4994337;28;20053;-86
2022/12/21 02:30:14;;;;;;;137.95;19.33;;;7.60;99.90;;;;;;5015958;28;20054;-86
2022/12/21 02:33:05;;;;;;;121.47;18.08;;;7.60;99.90;;;;;;4961620;28;20062;-86
2022/12/21 02:35:54;;;;;;;134.23;18.25;;;7.60;99.90;;;;;;4979384;28;20054;-86
2022/12/21 02:38:40;;;;;;;112.68;17.63;;;7.60;99.90;;;;;;4974754;28;20375;-86
2022/12/21 02:41:22;;;;;;;142.20;18.83;;;7.50;99.90;;;;;;4957723;28;20050;-86
2022/12/21 02:44:24;;;;;;;134.80;18.70;;;7.50;99.90;;;;;;4974609;28;20101;-86
2022/12/21 02:47:13;;;;;;;160.20;17.63;;;7.50;99.90;;;;;;4958983;28;20050;-86
2022/12/21 02:49:59;;;;;;;169.90;19.15;;;7.50;99.90;;;;;;4974816;28;20054;-86
2022/12/21 02:52:46;;;;;;;125.43;17.25;;;7.50;99.90;;;;;;4975105;28;20069;-86
2022/12/21 02:55:12;;;;;;;167.68;16.90;;;7.50;99.90;;;;;;4958508;28;20054;-86
2022/12/21 02:57:40;;;;;;;143.60;16.35;;;7.40;99.90;;;;;;4958466;28;20050;-86
2022/12/21 03:00:14;;;;;;;125.97;16.90;;;7.40;99.90;;;;;;4958807;28;20061;-86
2022/12/21 03:06:08;;;;;;;148.20;16.83;;;7.40;99.90;;;;;;4963198;28;20521;-86
2022/12/21 03:08:42;;;;;;;228.90;19.20;;;7.40;99.90;;;;;;4991875;28;20057;-86
2022/12/21 03:11:07;;;;;;;88.22;15.60;;;7.40;99.90;;;;;;4958849;28;20050;-86
2022/12/21 03:14:01;;;;;;;187.35;17.92;;;7.50;99.90;;;;;;4957694;28;20042;-86
2022/12/21 03:16:34;;;;;;;182.38;18.42;;;7.40;99.90;;;;;;4941327;28;20490;-86
2022/12/21 03:19:08;;;;;;;118.80;15.73;;;7.40;99.90;;;;;;4942317;28;20086;-87
2022/12/21 03:22:00;;;;;;;94.22;14.68;;;7.30;99.90;;;;;;4958163;28;20408;-86
2022/12/21 03:24:31;;;;;;;74.95;14.02;;;7.30;99.90;;;;;;4963408;28;20062;-86
2022/12/21 03:27:00;;;;;;;103.47;15.30;;;7.30;99.90;;;;;;4957895;28;20050;-86
2022/12/21 03:29:29;;;;;;;111.43;15.00;;;7.30;99.90;;;;;;4941780;28;20088;-86
2022/12/21 03:31:57;;;;;;;186.90;17.45;;;7.20;99.90;;;;;;4991823;28;20054;-86
2022/12/21 03:34:27;;;;;;;156.13;15.80;;;7.30;99.90;;;;;;4973944;28;20421;-86
2022/12/21 03:36:54;;;;;;;162.30;16.05;;;7.20;99.90;;;;;;4976923;28;20460;-86
2022/12/21 03:39:21;;;;;;;120.30;14.95;;;7.20;99.90;;;;;;4992355;28;20056;-87
2022/12/21 03:41:55;;;;;;;133.43;15.82;;;7.30;99.90;;;;;;4976455;28;20131;-86
2022/12/21 03:44:25;;;;;;;124.60;16.20;;;7.20;99.90;;;;;;4977718;28;20053;-86
2022/12/21 03:46:58;;;;;;;145.68;16.23;;;7.20;99.90;;;;;;4992347;28;20054;-86
2022/12/21 03:49:45;;;;;;;113.38;14.73;;;7.20;99.90;;;;;;4976770;28;20056;-86
2022/12/21 03:52:13;;;;;;;160.85;15.27;;;7.20;99.90;;;;;;4992537;28;20115;-86
2022/12/21 03:54:51;;;;;;;112.38;14.13;;;7.30;99.90;;;;;;4976851;28;20065;-86
2022/12/21 03:57:17;;;;;;;157.07;15.57;;;7.10;99.90;;;;;;4992866;28;20460;-86
2022/12/21 03:59:44;;;;;;;161.50;16.52;;;7.10;99.90;;;;;;4976140;28;20058;-86
2022/12/21 04:02:22;;;;;;;124.13;14.48;;;7.10;99.90;;;;;;4975735;28;20038;-86
2022/12/21 04:04:54;;;;;;;192.50;16.25;;;7.10;99.90;;;;;;4960934;28;20058;-86
2022/12/21 04:07:23;;;;;;;149.85;15.13;;;7.10;99.90;;;;;;5010085;28;20420;-86
2022/12/21 04:09:57;;;;;;;143.25;14.73;;;7.10;99.90;;;;;;4977067;28;20050;-86
2022/12/21 04:12:38;;;;;;;132.68;13.77;;;7.10;99.90;;;;;;4993052;28;20049;-86
2022/12/21 04:15:11;;;;;;;112.75;12.05;;;7.10;99.90;;;;;;4962351;28;20173;-86
2022/12/21 04:17:37;;;;;;;87.47;11.75;;;7.10;99.90;;;;;;4993494;28;20161;-86
2022/12/21 04:20:06;;;;;;;130.63;13.73;;;7.10;99.90;;;;;;4992690;28;20148;-86
2022/12/21 04:28:07;;;;;;;94.72;13.45;;;7.10;99.90;;;;;;5008910;28;20104;-86
2022/12/21 04:30:37;;;;;;;143.43;14.30;;;7.10;99.90;;;;;;4976424;28;20140;-86
2022/12/21 04:33:03;;;;;;;171.55;15.48;;;7.10;99.90;;;;;;4976328;28;20133;-86
2022/12/21 04:35:29;;;;;;;174.75;16.17;;;7.10;99.90;;;;;;4976375;28;20488;-87
2022/12/21 04:37:55;;;;;;;123.97;14.90;;;7.20;99.90;;;;;;4991884;28;20137;-86
2022/12/21 04:40:20;;;;;;;145.25;14.32;;;7.10;99.90;;;;;;4991786;28;20390;-86
2022/12/21 04:42:46;;;;;;;175.68;14.88;;;7.10;99.90;;;;;;4975460;28;20143;-86
2022/12/21 04:45:12;;;;;;;249.93;17.42;;;7.10;99.90;;;;;;4976106;28;20058;-86
2022/12/21 04:47:37;;;;;;;155.50;15.90;;;7.10;99.90;;;;;;5009584;28;20046;-86
2022/12/21 04:50:03;;;;;;;208.48;16.25;;;7.10;99.90;;;;;;5009345;28;20053;-86
2022/12/21 04:52:30;;;;;;;142.50;15.13;;;7.20;99.90;;;;;;4991562;28;20588;-86
2022/12/21 04:54:56;;;;;;;128.27;14.68;;;7.20;99.90;;;;;;4975611;28;20096;-86
2022/12/21 04:57:22;;;;;;;95.18;13.88;;;7.20;99.90;;;;;;5009167;28;20057;-86
2022/12/21 04:59:48;;;;;;;145.18;16.00;;;7.10;99.90;;;;;;4975694;28;20379;-87
2022/12/21 05:02:13;;;;;;;112.68;15.40;;;7.10;99.90;;;;;;4991763;28;20072;-87
2022/12/21 05:04:39;;;;;;;105.95;14.32;;;7.10;99.90;;;;;;5009520;28;20057;-87
2022/12/21 05:07:05;;;;;;;133.52;16.13;;;7.10;99.90;;;;;;4991063;28;20050;-87
2022/12/21 05:09:30;;;;;;;138.23;16.60;;;7.00;99.90;;;;;;5009401;28;20060;-86
2022/12/21 05:11:56;;;;;;;182.93;17.38;;;7.00;99.90;;;;;;4990881;28;20065;-87
2022/12/21 05:14:22;;;;;;;223.30;18.73;;;7.00;99.90;;;;;;5009183;28;20092;-87
2022/12/21 05:16:48;;;;;;;125.15;16.20;;;7.10;99.90;;;;;;4975545;28;20046;-86
2022/12/21 05:19:14;;;;;;;219.02;17.92;;;7.00;99.90;;;;;;4975707;28;20042;-86
2022/12/21 05:21:40;;;;;;;249.45;19.40;;;7.00;99.90;;;;;;4991636;28;20072;-87
2022/12/21 05:24:06;;;;;;;88.97;15.30;;;7.00;99.90;;;;;;5009268;28;20045;-87
2022/12/21 05:26:31;;;;;;;136.30;16.60;;;7.00;99.90;;;;;;4991546;28;20100;-87
2022/12/21 05:28:57;;;;;;;123.88;16.55;;;7.00;99.90;;;;;;4976885;28;20079;-87
2022/12/21 05:31:23;;;;;;;103.82;15.18;;;7.10;99.90;;;;;;4971607;28;20112;-87
2022/12/21 05:33:48;;;;;;;163.40;17.60;;;7.00;99.90;;;;;;4956072;28;20108;-87
2022/12/21 05:36:16;;;;;;;166.07;18.30;;;7.00;99.90;;;;;;4972128;28;20050;-87
2022/12/21 05:38:41;;;;;;;132.07;17.02;;;7.00;99.90;;;;;;4972511;28;20057;-87
2022/12/21 05:41:07;;;;;;;105.32;16.23;;;7.00;99.90;;;;;;4959152;28;20042;-86
2022/12/21 05:43:33;;;;;;;144.60;18.05;;;6.90;99.90;;;;;;4974969;28;20069;-87
2022/12/21 05:46:04;;;;;;;151.32;18.20;;;7.00;99.90;;;;;;4959420;28;20125;-87
2022/12/21 05:48:29;;;;;;;172.65;19.85;;;7.00;99.90;;;;;;4975176;28;20058;-87
2022/12/21 05:50:55;;;;;;;217.75;21.05;;;7.00;99.90;;;;;;4992605;28;20056;-86
2022/12/21 05:53:20;;;;;;;160.68;20.15;;;7.00;99.90;;;;;;4959879;28;20046;-87
2022/12/21 05:55:46;;;;;;;237.02;23.38;;;7.00;99.90;;;;;;4975085;28;20038;-87
2022/12/21 05:58:12;;;;;;;226.88;22.42;;;7.00;99.90;;;;;;4992800;28;20054;-87
2022/12/21 06:00:38;;;;;;;271.92;23.80;;;7.20;99.90;;;;;;4974685;28;20120;-87
2022/12/21 06:03:04;;;;;;;160.32;21.30;;;7.00;99.90;;;;;;4992486;28;20054;-87
2022/12/21 06:05:30;;;;;;;188.13;22.95;;;7.00;99.90;;;;;;4958817;28;20469;-86
2022/12/21 06:07:56;;;;;;;153.80;22.42;;;7.10;99.90;;;;;;4992362;28;20042;-87
2022/12/21 06:10:21;;;;;;;144.93;21.85;;;7.00;99.90;;;;;;4992595;28;20197;-87
2022/12/21 06:12:47;;;;;;;170.90;22.65;;;7.00;99.90;;;;;;4990420;28;20073;-87
2022/12/21 06:15:13;;;;;;;170.05;22.48;;;7.10;99.90;;;;;;4992489;28;20479;-87
2022/12/21 06:17:39;;;;;;;153.95;23.42;;;7.10;99.90;;;;;;4992368;28;20097;-87
2022/12/21 06:20:06;;;;;;;166.50;23.40;;;7.10;99.90;;;;;;4992119;28;20062;-87
2022/12/21 06:22:34;;;;;;;163.85;24.42;;;7.10;99.90;;;;;;4958757;28;20050;-87
2022/12/21 06:25:02;;;;;;;185.63;25.40;;;7.10;99.90;;;;;;4958615;28;20161;-86
2022/12/21 06:27:28;;;;;;;132.20;22.38;;;7.10;99.90;;;;;;4992082;28;20072;-86
2022/12/21 06:29:53;;;;;;;187.88;25.33;;;7.10;99.90;;;;;;4990940;28;20046;-87
2022/12/21 06:32:19;;;;;;;158.80;24.13;;;7.10;99.90;;;;;;4992213;28;20054;-87
2022/12/21 06:34:45;;;;;;;177.90;25.75;;;7.10;99.90;;;;;;4974493;28;20153;-87
2022/12/21 06:37:10;;;;;;;239.27;27.30;;;7.10;99.90;;;;;;4974902;28;20050;-87
2022/12/21 06:39:36;;;;;;;209.30;27.33;;;7.10;99.90;;;;;;4974277;28;20505;-86
2022/12/21 06:42:03;;;;;;;204.43;27.75;;;7.10;99.90;;;;;;4986883;28;20287;-86
2022/12/21 06:44:28;;;;;;;231.27;27.75;;;7.10;99.90;;;;;;4994562;28;20498;-87
2022/12/21 06:47:00;;;;;;;269.60;29.60;;;7.10;99.90;;;;;;4978780;28;20077;-86
2022/12/21 06:49:25;;;;;;;246.38;27.88;;;7.20;99.90;;;;;;5011938;28;20049;-87
2022/12/21 06:51:51;;;;;;;216.27;28.15;;;7.20;99.90;;;;;;4993656;28;20057;-86
2022/12/21 06:54:17;;;;;;;187.80;25.08;;;7.40;99.90;;;;;;4977464;28;20056;-87
2022/12/21 06:56:43;;;;;;;188.73;27.55;;;7.20;99.90;;;;;;5011277;28;20061;-87
2022/12/21 06:59:08;;;;;;;292.75;30.58;;;7.20;99.90;;;;;;4961516;28;20046;-87
2022/12/21 07:01:34;;;;;;;340.15;32.60;;;7.20;99.90;;;;;;4993506;28;20050;-87
2022/12/21 07:04:00;;;;;;;217.60;28.88;;;7.20;99.90;;;;;;4993466;28;20049;-86
2022/12/21 07:06:27;;;;;;;189.35;29.67;;;7.30;99.90;;;;;;5011492;28;20054;-86
2022/12/21 07:08:53;;;;;;;226.35;29.75;;;7.30;99.90;;;;;;4961622;28;20066;-87
2022/12/21 07:11:20;;;;;;;225.88;29.73;;;7.30;99.90;;;;;;4993909;28;20060;-86
2022/12/21 07:13:46;;;;;;;264.67;30.85;;;7.30;99.90;;;;;;4993107;28;20132;-86
2022/12/21 07:16:13;;;;;;;221.25;28.60;;;7.30;99.90;;;;;;4977240;28;20041;-87
2022/12/21 07:18:39;;;;;;;229.18;30.65;;;7.30;99.90;;;;;;4993624;28;20054;-86
2022/12/21 07:21:06;;;;;;;214.10;30.00;;;7.30;99.90;;;;;;4993376;28;20056;-86
2022/12/21 07:23:36;;;;;;;181.75;29.40;;;7.30;99.90;;;;;;4977385;28;20054;-86
2022/12/21 07:26:06;;;;;;;206.82;30.52;;;7.40;99.90;;;;;;4993135;28;20401;-87
2022/12/21 07:28:32;;;;;;;169.85;27.40;;;7.40;99.90;;;;;;4977076;28;20398;-87
2022/12/21 07:31:07;;;;;;;161.52;29.13;;;7.40;99.90;;;;;;4993572;28;20081;-87
2022/12/21 07:33:33;;;;;;;158.60;28.23;;;7.40;99.90;;;;;;4977267;28;20097;-85
2022/12/21 07:36:00;;;;;;;165.98;29.13;;;7.40;99.90;;;;;;4976989;28;20520;-86
2022/12/21 07:38:29;;;;;;;162.95;27.75;;;7.40;99.90;;;;;;4993126;28;20540;-85
2022/12/21 07:40:58;;;;;;;161.35;28.73;;;7.40;99.90;;;;;;4960926;28;20045;-86
2022/12/21 07:43:24;;;;;;;174.57;29.63;;;7.40;99.90;;;;;;4961570;28;20053;-87
2022/12/21 07:45:50;;;;;;;163.50;28.67;;;7.40;99.90;;;;;;4998310;28;20077;-87
2022/12/21 07:48:16;;;;;;;151.50;28.45;;;7.50;99.90;;;;;;4998057;28;20045;-87
2022/12/21 07:50:41;;;;;;;156.65;29.50;;;7.40;99.90;;;;;;5010706;28;20053;-87
2022/12/21 07:53:07;;;;;;;135.30;26.65;;;7.40;99.90;;;;;;5009084;28;20057;-87
2022/12/21 07:55:33;;;;;;;146.38;25.65;;;7.40;99.90;;;;;;5009934;28;20128;-87
2022/12/21 07:57:59;;;;;;;128.50;25.75;;;7.40;99.90;;;;;;5011137;28;20104;-87
2022/12/21 08:00:24;;;;;;;90.50;19.80;;;7.40;99.90;;;;;;4996310;28;20408;-88
2022/12/21 08:02:50;;;;;;;119.03;22.45;;;7.40;99.90;;;;;;4980693;28;20132;-87
2022/12/21 08:05:17;;;;;;;124.38;23.60;;;7.50;99.90;;;;;;5010520;28;20077;-87
2022/12/21 08:07:43;;;;;;;121.07;25.70;;;7.40;99.90;;;;;;4992655;28;20465;-88
2022/12/21 08:10:09;;;;;;;102.60;23.38;;;7.40;99.90;;;;;;4992663;28;20149;-86
2022/12/21 08:12:34;;;;;;;133.57;24.80;;;7.40;99.90;;;;;;4991923;28;20050;-87
2022/12/21 08:15:00;;;;;;;105.43;22.80;;;7.40;99.90;;;;;;4992079;28;20137;-87
2022/12/21 08:17:26;;;;;;;117.50;24.15;;;7.40;99.90;;;;;;4992241;28;20085;-87
2022/12/21 08:19:51;;;;;;;118.53;23.30;;;7.40;99.90;;;;;;4991755;28;20132;-87
2022/12/21 08:22:17;;;;;;;113.45;23.63;;;7.40;99.90;;;;;;5009304;28;20049;-88
2022/12/21 08:24:43;;;;;;;117.85;24.42;;;7.40;99.90;;;;;;4976083;28;20061;-86
2022/12/21 08:27:08;;;;;;;123.63;25.95;;;7.40;99.90;;;;;;5009600;28;20048;-86
2022/12/21 08:29:34;;;;;;;110.03;24.13;;;7.40;99.90;;;;;;4992139;28;20093;-85
2022/12/21 08:32:00;;;;;;;110.88;23.23;;;7.40;99.90;;;;;;5009462;28;20089;-85
2022/12/21 08:34:25;;;;;;;123.10;23.88;;;7.40;99.90;;;;;;5009610;28;20073;-85
2022/12/21 08:36:51;;;;;;;124.03;24.55;;;7.40;99.90;;;;;;5009768;28;20054;-86
2022/12/21 08:39:17;;;;;;;109.47;23.65;;;7.40;99.90;;;;;;5009438;28;20073;-87
2022/12/21 08:41:42;;;;;;;109.05;23.30;;;7.50;99.90;;;;;;5007802;28;20103;-87
2022/12/21 08:44:08;;;;;;;104.28;24.75;;;7.40;99.90;;;;;;4991637;28;20148;-87
2022/12/21 08:46:34;;;;;;;116.32;26.42;;;7.30;99.90;;;;;;4972755;28;20048;-87
2022/12/21 08:49:00;;;;;;;117.18;23.58;;;7.40;99.90;;;;;;5008873;28;20046;-86
2022/12/21 08:51:25;;;;;;;126.22;24.58;;;7.30;99.90;;;;;;4991184;28;20057;-86
2022/12/21 08:53:52;;;;;;;111.93;25.13;;;7.40;99.90;;;;;;4991580;28;20184;-86
2022/12/21 08:56:18;;;;;;;120.28;25.20;;;7.30;99.90;;;;;;4974982;28;20053;-86
2022/12/21 08:58:44;;;;;;;126.00;25.92;;;7.30;99.90;;;;;;5008855;28;20737;-85
2022/12/21 09:01:10;;;;;;;120.20;25.63;;;7.30;99.90;;;;;;5007475;28;20046;-86
2022/12/21 09:03:35;;;;;;;113.00;25.15;;;7.40;99.90;;;;;;4987418;28;20055;-84
2022/12/21 09:06:04;;;;;;;120.88;25.27;;;7.40;99.90;;;;;;4989508;28;20492;-85
2022/12/21 09:08:29;;;;;;;124.35;24.15;;;7.50;99.90;;;;;;4988697;28;20568;-85
2022/12/21 09:11:02;;;;;;;129.68;26.85;;;7.60;99.90;;;;;;4971990;28;20061;-86
2022/12/21 09:13:28;;;;;;;113.55;24.85;;;7.60;99.90;;;;;;4968747;28;20046;-84
2022/12/21 09:15:54;;;;;;;107.40;25.90;;;7.60;99.90;;;;;;4959559;28;20061;-85
2022/12/21 09:18:19;;;;;;;113.88;25.33;;;7.70;99.90;;;;;;4975436;28;20054;-85
2022/12/21 09:20:45;;;;;;;107.70;24.27;;;7.70;99.90;;;;;;4959798;28;20055;-86
2022/12/21 09:23:11;;;;;;;123.88;26.15;;;7.70;99.90;;;;;;4993168;28;20050;-85
2022/12/21 09:25:37;;;;;;;93.57;24.67;;;7.70;99.90;;;;;;4975327;28;20544;-85
2022/12/21 09:28:03;;;;;;;104.20;25.05;;;7.80;99.90;;;;;;4993093;28;20053;-85
2022/12/21 09:30:29;;;;;;;104.53;26.52;;;7.90;99.90;;;;;;4992969;28;20057;-85
2022/12/21 09:32:54;;;;;;;102.85;25.42;;;7.90;99.90;;;;;;4992846;28;20494;-85
2022/12/21 09:35:20;;;;;;;103.78;24.60;;;8.00;99.90;;;;;;4992839;28;20042;-85
2022/12/21 09:37:46;;;;;;;115.05;27.58;;;8.00;99.90;;;;;;4992854;28;20054;-85
2022/12/21 09:40:12;;;;;;;107.47;26.83;;;8.00;99.90;;;;;;4992627;28;20050;-87
2022/12/21 09:42:56;;;;;;;108.57;27.48;;;8.10;99.90;;;;;;4958580;28;20486;-87
2022/12/21 09:45:34;;;;;;;87.88;25.15;;;8.10;99.90;;;;;;4991598;28;20089;-85
2022/12/21 09:48:04;;;;;;;94.03;26.67;;;8.00;99.90;;;;;;4992747;28;20042;-85
2022/12/21 09:50:59;;;;;;;84.88;25.58;;;8.10;99.90;;;;;;4975278;28;20149;-85
2022/12/21 09:53:31;;;;;;;97.85;26.00;;;8.20;99.90;;;;;;4962670;28;20132;-85
2022/12/21 09:55:58;;;;;;;83.90;25.65;;;8.30;99.90;;;;;;4975041;28;20388;-85
2022/12/21 09:58:41;;;;;;;84.38;24.52;;;8.30;99.90;;;;;;4974896;28;20490;-85
2022/12/21 10:01:25;;;;;;;75.15;24.38;;;8.20;99.90;;;;;;4974996;28;20387;-85
2022/12/21 10:04:00;;;;;;;89.55;25.50;;;8.10;99.90;;;;;;4960497;28;20086;-86
2022/12/21 10:06:50;;;;;;;91.90;25.20;;;8.10;99.90;;;;;;4975139;28;20058;-85
2022/12/21 10:09:45;;;;;;;92.05;25.35;;;8.10;99.90;;;;;;4992336;28;20065;-84
2022/12/21 10:12:26;;;;;;;102.32;28.13;;;8.10;99.90;;;;;;4944231;28;20054;-83
2022/12/21 10:14:54;;;;;;;104.30;28.88;;;8.10;99.90;;;;;;4991070;28;20050;-85
2022/12/21 10:17:35;;;;;;;95.05;26.08;;;8.00;99.90;;;;;;4992312;28;20046;-83
2022/12/21 10:20:22;;;;;;;83.70;25.67;;;8.10;99.90;;;;;;4974937;28;20487;-84
2022/12/21 10:22:49;;;;;;;83.72;25.70;;;8.10;99.90;;;;;;4974808;28;20057;-84
2022/12/21 10:25:23;;;;;;;99.70;28.30;;;8.00;99.90;;;;;;4958083;28;20058;-84
2022/12/21 10:28:14;;;;;;;88.78;25.83;;;8.00;99.90;;;;;;4992186;28;20101;-88
2022/12/21 10:30:39;;;;;;;84.50;26.65;;;8.00;99.90;;;;;;4938022;28;20062;-88
2022/12/21 10:33:07;;;;;;;76.60;25.02;;;8.00;99.90;;;;;;4971779;28;20054;-88
2022/12/21 10:35:37;;;;;;;77.07;24.73;;;8.00;99.90;;;;;;4957848;28;20066;-88
2022/12/21 10:38:11;;;;;;;77.35;24.80;;;8.10;99.90;;;;;;4974397;28;20133;-87
2022/12/21 10:40:37;;;;;;;75.78;25.50;;;8.00;99.90;;;;;;4958931;28;20089;-88
2022/12/21 10:43:02;;;;;;;62.97;24.58;;;7.90;99.90;;;;;;4974035;28;20085;-87
2022/12/21 10:45:28;;;;;;;69.38;23.40;;;7.90;99.90;;;;;;4958068;28;20117;-86
2022/12/21 10:47:54;;;;;;;70.18;24.00;;;7.80;99.90;;;;;;4974491;28;20463;-87
2022/12/21 10:50:43;;;;;;;71.03;25.45;;;7.90;99.90;;;;;;4958297;28;20053;-87
2022/12/21 10:53:26;;;;;;;64.45;23.65;;;7.90;99.90;;;;;;4958671;28;20058;-87
2022/12/21 10:55:58;;;;;;;71.47;25.83;;;8.00;99.90;;;;;;4974544;28;20057;-87
2022/12/21 10:58:27;;;;;;;67.50;21.83;;;7.80;99.90;;;;;;4942532;28;20046;-86
2022/12/21 11:01:16;;;;;;;58.88;21.00;;;7.90;99.90;;;;;;4958965;28;20145;-88
2022/12/21 11:03:42;;;;;;;53.88;21.13;;;8.00;99.90;;;;;;4977440;28;20058;-88
2022/12/21 11:06:10;;;;;;;58.38;21.25;;;7.80;99.90;;;;;;4993083;28;20057;-86
2022/12/21 11:08:42;;;;;;;51.72;19.27;;;7.90;99.90;;;;;;4977562;28;20061;-87
2022/12/21 11:11:09;;;;;;;52.03;19.20;;;7.90;99.90;;;;;;4959787;28;20050;-87
2022/12/21 11:13:34;;;;;;;56.85;20.77;;;7.80;99.90;;;;;;4958030;28;20061;-87
2022/12/21 11:16:05;;;;;;;53.05;19.30;;;8.60;99.90;;;;;;4958265;28;20054;-88
2022/12/21 11:18:48;;;;;;;49.67;19.90;;;7.80;99.90;;;;;;4974621;28;20073;-86
2022/12/21 11:21:31;;;;;;;53.72;22.63;;;7.80;99.90;;;;;;4963319;28;20058;-89
2022/12/21 11:24:06;;;;;;;50.35;20.75;;;7.70;99.90;;;;;;4979905;28;20061;-88
2022/12/21 11:26:39;;;;;;;46.58;19.20;;;7.80;99.90;;;;;;4996122;28;20046;-87
2022/12/21 11:29:06;;;;;;;48.63;19.35;;;7.80;99.90;;;;;;4978447;28;20046;-88
2022/12/21 11:31:32;;;;;;;61.30;21.00;;;7.80;99.90;;;;;;4964045;28;20105;-88
2022/12/21 11:33:58;;;;;;;52.90;20.50;;;7.80;99.90;;;;;;4961762;28;20058;-91
2022/12/21 11:36:23;;;;;;;55.95;21.50;;;8.00;99.90;;;;;;4977112;28;20049;-92
2022/12/21 11:38:49;;;;;;;56.97;20.85;;;8.00;99.90;;;;;;4994309;28;20648;-90
2022/12/21 11:41:27;;;;;;;59.95;22.25;;;8.00;99.90;;;;;;4962810;28;20058;-91
2022/12/21 11:43:53;;;;;;;62.65;21.33;;;8.00;99.90;;;;;;4959520;28;20050;-90
2022/12/21 11:46:31;;;;;;;47.42;19.38;;;8.10;99.90;;;;;;4976373;28;20042;-90
2022/12/21 11:49:17;;;;;;;58.08;23.02;;;8.20;99.90;;;;;;4976994;28;20046;-89
2022/12/21 11:52:11;;;;;;;60.60;20.63;;;8.10;99.90;;;;;;4964424;28;20421;-91
2022/12/21 11:54:42;;;;;;;56.20;20.45;;;8.20;99.90;;;;;;4977388;28;20069;-90
2022/12/21 11:57:31;;;;;;;54.38;20.00;;;8.30;99.90;;;;;;4977762;28;20042;-93
2022/12/21 12:00:05;;;;;;;58.28;19.25;;;8.30;99.90;;;;;;4962669;28;20061;-89
2022/12/21 12:02:49;;;;;;;56.08;20.58;;;8.30;99.90;;;;;;4978851;28;20054;-88
2022/12/21 12:05:17;;;;;;;55.00;19.52;;;8.30;99.90;;;;;;4975831;28;20056;-87
2022/12/21 12:07:51;;;;;;;58.20;21.00;;;8.30;99.90;;;;;;4973675;28;20093;-89
2022/12/21 12:10:38;;;;;;;55.13;19.30;;;8.30;99.90;;;;;;4957099;28;20082;-89
2022/12/21 12:13:29;;;;;;;53.40;19.55;;;8.30;99.90;;;;;;4972382;28;20054;-90
2022/12/21 12:16:19;;;;;;;53.88;20.60;;;8.40;99.90;;;;;;4990327;28;20042;-90
2022/12/21 12:19:03;;;;;;;55.65;19.77;;;8.40;99.90;;;;;;4973382;28;20050;-90
2022/12/21 12:21:50;;;;;;;52.20;19.90;;;8.40;99.90;;;;;;4974366;28;20046;-90
2022/12/21 12:24:40;;;;;;;57.92;19.80;;;8.30;99.90;;;;;;4947055;28;20055;-89
2022/12/21 12:27:13;;;;;;;54.15;19.60;;;8.30;99.90;;;;;;4973232;28;20056;-89
2022/12/21 12:29:48;;;;;;;48.22;18.55;;;8.30;99.90;;;;;;4973059;28;20054;-90
2022/12/21 12:32:39;;;;;;;52.75;19.05;;;8.30;99.90;;;;;;4957715;28;20042;-89
2022/12/21 12:35:13;;;;;;;54.22;21.40;;;8.30;99.90;;;;;;4957730;28;20123;-89
2022/12/21 12:38:17;;;;;;;56.75;19.63;;;8.30;99.90;;;;;;4973205;28;20062;-90
2022/12/21 12:40:56;;;;;;;54.33;19.95;;;8.50;99.90;;;;;;4959770;28;20054;-90
2022/12/21 12:43:44;;;;;;;50.95;19.50;;;8.40;99.90;;;;;;4956653;28;20086;-89
2022/12/21 12:46:10;;;;;;;54.58;18.55;;;8.40;99.90;;;;;;4973285;28;20053;-90
2022/12/21 12:48:47;;;;;;;51.53;19.20;;;8.40;99.90;;;;;;4973854;28;20058;-91
2022/12/21 12:51:43;;;;;;;49.97;19.35;;;8.40;99.90;;;;;;4977217;28;20450;-91
2022/12/21 12:54:41;;;;;;;49.72;19.60;;;8.40;99.90;;;;;;4978426;28;20046;-90
2022/12/21 12:57:21;;;;;;;52.92;19.33;;;8.40;99.90;;;;;;4963995;28;20109;-91